createdAt,value
2018-11-11T00:02:19.054Z,42.27
2018-11-11T00:04:47.450Z,42.70
2018-11-11T00:07:15.822Z,42.10
2018-11-11T00:09:44.222Z,42.70
2018-11-11T00:12:12.598Z,41.90
2018-11-11T00:14:40.990Z,42.90
2018-11-11T00:17:09.364Z,45.87
2018-11-11T00:19:37.761Z,45.10
2018-11-11T00:22:06.279Z,44.40
2018-11-11T00:24:34.698Z,43.53
2018-11-11T00:27:03.104Z,44.43
2018-11-11T00:29:31.501Z,44.00
2018-11-11T00:31:59.891Z,42.20
2018-11-11T00:34:28.291Z,47.97
2018-11-11T00:36:56.667Z,41.93
2018-11-11T00:39:25.098Z,43.43
2018-11-11T00:41:53.482Z,41.40
2018-11-11T00:44:21.864Z,43.00
2018-11-11T00:46:50.267Z,45.03
2018-11-11T00:49:18.663Z,43.30
2018-11-11T00:51:47.062Z,42.80
2018-11-11T00:54:15.694Z,42.43
2018-11-11T00:56:44.103Z,42.73
2018-11-11T00:59:12.493Z,43.07
2018-11-11T01:01:40.887Z,43.20
2018-11-11T01:04:09.263Z,44.17
2018-11-11T01:06:37.663Z,44.33
2018-11-11T01:09:07.019Z,44.67
2018-11-11T01:11:35.512Z,41.27
2018-11-11T01:14:03.899Z,44.80
2018-11-11T01:16:32.311Z,45.13
2018-11-11T01:19:00.682Z,41.83
2018-11-11T01:21:29.084Z,45.03
2018-11-11T01:23:57.460Z,43.37
2018-11-11T01:26:25.855Z,43.10
2018-11-11T01:28:54.226Z,44.80
2018-11-11T01:31:22.632Z,42.93
2018-11-11T01:33:50.998Z,44.13
2018-11-11T01:36:19.520Z,41.67
2018-11-11T01:38:47.886Z,42.17
2018-11-11T01:41:16.311Z,43.43
2018-11-11T01:43:44.698Z,41.73
2018-11-11T01:46:13.090Z,41.67
2018-11-11T01:48:41.463Z,38.47
2018-11-11T01:51:09.865Z,44.63
2018-11-11T01:53:38.228Z,40.77
2018-11-11T01:56:06.947Z,43.40
2018-11-11T01:58:35.514Z,44.57
2018-11-11T02:01:03.935Z,42.40
2018-11-11T02:03:32.315Z,45.03
2018-11-11T02:06:00.706Z,42.83
2018-11-11T02:08:29.084Z,44.70
2018-11-11T02:10:57.473Z,43.40
2018-11-11T02:13:25.842Z,43.07
2018-11-11T02:15:54.234Z,45.97
2018-11-11T02:18:22.610Z,46.20
2018-11-11T02:20:51.000Z,44.00
2018-11-11T02:23:19.368Z,44.27
2018-11-11T02:25:47.760Z,43.57
2018-11-11T02:28:16.137Z,44.60
2018-11-11T02:30:44.551Z,46.27
2018-11-11T02:33:12.926Z,45.13
2018-11-11T02:35:41.299Z,44.70
2018-11-11T02:38:09.693Z,45.47
2018-11-11T02:40:38.058Z,43.13
2018-11-11T02:43:06.470Z,46.80
2018-11-11T02:45:34.842Z,44.00
2018-11-11T02:48:03.230Z,44.33
2018-11-11T02:50:31.606Z,45.43
2018-11-11T02:52:59.994Z,42.33
2018-11-11T02:55:28.371Z,42.97
2018-11-11T02:57:56.770Z,38.53
2018-11-11T03:00:25.138Z,40.67
2018-11-11T03:02:53.561Z,44.27
2018-11-11T03:05:21.938Z,45.73
2018-11-11T03:07:50.331Z,43.10
2018-11-11T03:10:19.139Z,44.30
2018-11-11T03:12:48.559Z,44.20
2018-11-11T03:15:17.251Z,42.90
2018-11-11T03:17:45.732Z,45.93
2018-11-11T03:20:14.901Z,46.10
2018-11-11T03:22:43.306Z,44.23
2018-11-11T03:25:13.805Z,43.77
2018-11-11T03:27:42.622Z,42.53
2018-11-11T03:30:12.314Z,44.40
2018-11-11T03:32:40.923Z,43.63
2018-11-11T03:35:10.705Z,43.83
2018-11-11T03:37:39.113Z,45.80
2018-11-11T03:40:11.009Z,44.03
2018-11-11T03:42:39.422Z,47.53
2018-11-11T03:45:09.976Z,46.10
2018-11-11T03:47:38.432Z,46.20
2018-11-11T03:50:07.954Z,49.10
2018-11-11T03:52:36.346Z,48.57
2018-11-11T03:55:05.259Z,46.03
2018-11-11T03:57:33.662Z,45.87
2018-11-11T04:00:02.030Z,47.70
2018-11-11T04:02:30.427Z,47.67
2018-11-11T04:04:58.797Z,44.07
2018-11-11T04:07:27.350Z,46.17
2018-11-11T04:09:55.722Z,46.23
2018-11-11T04:12:24.123Z,46.53
2018-11-11T04:14:52.522Z,46.43
2018-11-11T04:17:20.925Z,44.80
2018-11-11T04:19:49.314Z,45.80
2018-11-11T04:22:18.958Z,47.97
2018-11-11T04:24:50.514Z,46.67
2018-11-11T04:27:19.075Z,45.60
2018-11-11T04:29:47.465Z,44.00
2018-11-11T04:32:15.838Z,44.20
2018-11-11T04:34:44.437Z,48.10
2018-11-11T04:37:12.811Z,43.50
2018-11-11T04:39:41.918Z,45.20
2018-11-11T04:42:10.313Z,43.93
2018-11-11T04:44:38.717Z,47.20
2018-11-11T04:47:07.236Z,43.97
2018-11-11T04:49:35.631Z,46.03
2018-11-11T04:52:04.022Z,47.57
2018-11-11T04:54:32.426Z,46.50
2018-11-11T04:57:00.828Z,45.83
2018-11-11T04:59:29.226Z,43.97
2018-11-11T05:01:57.603Z,42.40
2018-11-11T05:04:26.067Z,42.63
2018-11-11T05:06:54.405Z,45.20
2018-11-11T05:09:22.806Z,45.60
2018-11-11T05:11:51.177Z,46.33
2018-11-11T05:14:19.583Z,43.70
2018-11-11T05:16:47.950Z,39.27
2018-11-11T05:19:16.342Z,41.90
2018-11-11T05:21:44.723Z,46.77
2018-11-11T05:24:13.122Z,41.10
2018-11-11T05:26:41.496Z,45.97
2018-11-11T05:29:09.887Z,42.73
2018-11-11T05:31:38.288Z,44.40
2018-11-11T05:34:06.677Z,44.30
2018-11-11T05:36:35.038Z,45.20
2018-11-11T05:39:03.579Z,44.30
2018-11-11T05:41:31.970Z,42.17
2018-11-11T05:44:00.363Z,42.83
2018-11-11T05:46:28.729Z,40.37
2018-11-11T05:48:57.128Z,42.40
2018-11-11T05:51:25.490Z,41.77
2018-11-11T05:53:53.881Z,43.73
2018-11-11T05:56:22.254Z,40.97
2018-11-11T05:58:50.645Z,39.67
2018-11-11T06:01:19.043Z,42.87
2018-11-11T06:03:47.406Z,44.60
2018-11-11T06:06:15.806Z,41.90
2018-11-11T06:08:44.174Z,42.10
2018-11-11T06:11:12.569Z,43.50
2018-11-11T06:13:40.938Z,44.80
2018-11-11T06:16:09.326Z,45.37
2018-11-11T06:18:37.689Z,40.50
2018-11-11T06:21:06.250Z,49.80
2018-11-11T06:23:34.614Z,45.17
2018-11-11T06:26:03.027Z,43.97
2018-11-11T06:28:31.390Z,45.40
2018-11-11T06:30:59.781Z,45.93
2018-11-11T06:33:28.146Z,44.00
2018-11-11T06:35:56.542Z,44.93
2018-11-11T06:38:24.910Z,45.57
2018-11-11T06:40:53.302Z,39.80
2018-11-11T06:43:21.689Z,46.00
2018-11-11T06:45:50.073Z,42.87
2018-11-11T06:48:18.439Z,42.70
2018-11-11T06:50:46.822Z,43.03
2018-11-11T06:53:15.217Z,48.23
2018-11-11T06:55:43.618Z,40.17
2018-11-11T06:58:12.039Z,43.10
2018-11-11T07:00:40.431Z,43.47
2018-11-11T07:03:20.058Z,43.70
2018-11-11T07:05:48.450Z,41.90
2018-11-11T07:08:16.826Z,44.70
2018-11-11T07:10:45.218Z,44.90
2018-11-11T07:13:13.599Z,45.13
2018-11-11T07:15:41.990Z,43.00
2018-11-11T07:18:10.356Z,42.27
2018-11-11T07:20:38.754Z,46.13
2018-11-11T07:23:07.166Z,42.60
2018-11-11T07:25:35.570Z,44.67
2018-11-11T07:28:03.942Z,43.63
2018-11-11T07:30:32.342Z,44.20
2018-11-11T07:33:00.710Z,45.60
2018-11-11T07:35:29.110Z,45.70
2018-11-11T07:37:57.478Z,43.40
2018-11-11T07:40:25.882Z,44.47
2018-11-11T07:42:54.282Z,48.87
2018-11-11T07:45:22.684Z,47.83
2018-11-11T07:47:51.122Z,40.67
2018-11-11T07:50:19.469Z,42.90
2018-11-11T07:52:47.834Z,42.57
2018-11-11T07:55:16.249Z,43.70
2018-11-11T07:57:44.626Z,45.07
2018-11-11T08:00:14.389Z,44.77
2018-11-11T08:02:43.268Z,44.47
2018-11-11T08:05:11.665Z,45.20
2018-11-11T08:07:40.056Z,45.93
2018-11-11T08:10:19.886Z,37.97
2018-11-11T08:12:48.262Z,44.20
2018-11-11T08:15:16.633Z,45.90
2018-11-11T08:17:45.030Z,43.77
2018-11-11T08:20:13.430Z,44.57
2018-11-11T08:22:41.826Z,42.23
2018-11-11T08:25:10.199Z,43.73
2018-11-11T08:27:38.622Z,40.87
2018-11-11T08:30:07.959Z,41.43
2018-11-11T08:32:36.739Z,40.97
2018-11-11T08:35:05.537Z,42.00
2018-11-11T08:37:33.945Z,41.10
2018-11-11T08:40:02.456Z,44.30
2018-11-11T08:42:30.974Z,43.90
2018-11-11T08:44:59.354Z,42.40
2018-11-11T08:47:27.751Z,43.10
2018-11-11T08:49:56.119Z,42.07
2018-11-11T08:52:24.506Z,40.67
2018-11-11T08:54:52.874Z,43.57
2018-11-11T08:57:21.268Z,42.30
2018-11-11T08:59:49.634Z,42.60
2018-11-11T09:02:18.027Z,44.00
2018-11-11T09:04:46.467Z,41.83
2018-11-11T09:07:14.830Z,40.17
2018-11-11T09:09:43.211Z,40.03
2018-11-11T09:12:11.602Z,41.57
2018-11-11T09:14:39.982Z,38.00
2018-11-11T09:17:08.390Z,37.73
2018-11-11T09:19:36.775Z,35.73
2018-11-11T09:22:05.618Z,38.33
2018-11-11T09:24:33.993Z,37.67
2018-11-11T09:27:02.488Z,38.80
2018-11-11T09:29:30.879Z,35.50
2018-11-11T09:31:59.394Z,35.93
2018-11-11T09:34:27.770Z,40.67
2018-11-11T09:36:56.170Z,40.30
2018-11-11T09:39:24.574Z,36.53
2018-11-11T09:41:52.998Z,36.77
2018-11-11T09:44:21.374Z,36.07
2018-11-11T09:46:49.775Z,36.07
2018-11-11T09:49:18.150Z,38.73
2018-11-11T09:51:46.545Z,36.90
2018-11-11T09:54:15.052Z,33.47
2018-11-11T09:56:43.557Z,33.93
2018-11-11T09:59:11.926Z,32.97
2018-11-11T10:01:40.950Z,35.93
2018-11-11T10:04:13.374Z,34.10
2018-11-11T10:06:48.375Z,32.40
2018-11-11T10:09:23.475Z,33.90
2018-11-11T10:12:16.787Z,32.43
2018-11-11T10:15:55.674Z,32.47
2018-11-11T10:19:00.546Z,33.20
2018-11-11T10:21:40.377Z,32.27
2018-11-11T10:24:15.661Z,35.00
2018-11-11T10:26:47.171Z,32.17
2018-11-11T10:29:20.415Z,32.87
2018-11-11T10:32:09.630Z,33.37
2018-11-11T10:34:50.062Z,33.10
2018-11-11T10:37:26.785Z,33.73
2018-11-11T10:39:59.166Z,33.47
2018-11-11T10:42:32.895Z,34.57
2018-11-11T10:45:07.608Z,33.60
2018-11-11T10:47:41.474Z,35.30
2018-11-11T10:50:13.862Z,32.30
2018-11-11T10:52:42.234Z,33.70
2018-11-11T10:55:10.626Z,34.67
2018-11-11T10:57:38.989Z,31.93
2018-11-11T11:00:12.740Z,34.60
2018-11-11T11:02:46.431Z,33.50
2018-11-11T11:05:14.822Z,33.40
2018-11-11T11:07:43.195Z,32.13
2018-11-11T11:10:11.594Z,30.57
2018-11-11T11:12:39.966Z,31.40
2018-11-11T11:15:09.451Z,34.17
2018-11-11T11:17:37.829Z,30.17
2018-11-11T11:20:06.967Z,34.50
2018-11-11T11:22:35.482Z,33.17
2018-11-11T11:25:04.094Z,34.03
2018-11-11T11:27:32.464Z,33.03
2018-11-11T11:30:00.866Z,32.10
2018-11-11T11:32:29.249Z,33.57
2018-11-11T11:34:57.642Z,31.50
2018-11-11T11:37:26.011Z,34.97
2018-11-11T11:39:54.402Z,35.73
2018-11-11T11:42:22.797Z,32.57
2018-11-11T11:44:51.186Z,34.20
2018-11-11T11:47:19.593Z,34.10
2018-11-11T11:49:48.041Z,34.57
2018-11-11T11:52:16.429Z,36.30
2018-11-11T11:54:44.817Z,32.13
2018-11-11T11:57:13.310Z,36.00
2018-11-11T11:59:41.702Z,31.60
2018-11-11T12:02:10.147Z,31.43
2018-11-11T12:04:38.498Z,34.60
2018-11-11T12:07:06.887Z,32.20
2018-11-11T12:09:35.285Z,34.00
2018-11-11T12:12:03.666Z,32.40
2018-11-11T12:14:32.161Z,31.17
2018-11-11T12:17:00.653Z,32.33
2018-11-11T12:19:28.954Z,31.27
2018-11-11T12:21:57.349Z,34.90
2018-11-11T12:24:25.727Z,31.00
2018-11-11T12:26:54.123Z,31.70
2018-11-11T12:29:22.541Z,32.10
2018-11-11T12:31:50.942Z,32.43
2018-11-11T12:34:19.316Z,28.37
2018-11-11T12:36:47.714Z,29.87
2018-11-11T12:39:16.282Z,31.17
2018-11-11T12:41:44.552Z,30.47
2018-11-11T12:44:12.922Z,33.27
2018-11-11T12:46:41.581Z,32.60
2018-11-11T12:49:10.141Z,35.63
2018-11-11T12:51:38.525Z,32.20
2018-11-11T12:54:06.907Z,27.73
2018-11-11T12:56:35.295Z,30.57
2018-11-11T12:59:03.678Z,28.70
2018-11-11T13:01:32.066Z,26.97
2018-11-11T13:04:00.442Z,27.43
2018-11-11T13:06:28.837Z,29.60
2018-11-11T13:08:57.223Z,29.70
2018-11-11T13:11:25.662Z,26.53
2018-11-11T13:13:54.112Z,30.33
2018-11-11T13:16:22.471Z,28.87
2018-11-11T13:18:50.850Z,30.40
2018-11-11T13:21:19.241Z,31.70
2018-11-11T13:23:47.610Z,30.53
2018-11-11T13:26:16.010Z,31.60
2018-11-11T13:28:44.377Z,29.73
2018-11-11T13:31:12.813Z,31.43
2018-11-11T13:33:41.190Z,30.00
2018-11-11T13:36:09.621Z,31.40
2018-11-11T13:38:38.058Z,34.30
2018-11-11T13:41:06.406Z,33.20
2018-11-11T13:43:34.970Z,30.80
2018-11-11T13:46:03.475Z,33.43
2018-11-11T13:48:31.918Z,35.17
2018-11-11T13:51:00.310Z,35.67
2018-11-11T13:53:28.694Z,32.73
2018-11-11T13:55:57.103Z,31.53
2018-11-11T13:58:25.487Z,28.17
2018-11-11T14:00:53.916Z,28.70
2018-11-11T14:03:22.292Z,29.57
2018-11-11T14:05:50.690Z,27.30
2018-11-11T14:08:19.158Z,27.17
2018-11-11T14:10:47.590Z,28.40
2018-11-11T14:13:15.934Z,30.87
2018-11-11T14:15:44.314Z,28.10
2018-11-11T14:18:12.897Z,27.40
2018-11-11T14:20:41.181Z,27.77
2018-11-11T14:23:09.586Z,27.90
2018-11-11T14:25:38.008Z,24.83
2018-11-11T14:28:06.661Z,25.23
2018-11-11T14:30:35.041Z,27.70
2018-11-11T14:33:03.434Z,29.17
2018-11-11T14:35:31.810Z,26.97
2018-11-11T14:38:00.207Z,30.60
2018-11-11T14:40:29.641Z,29.23
2018-11-11T14:42:58.146Z,26.80
2018-11-11T14:45:26.918Z,31.37
2018-11-11T14:47:56.193Z,29.40
2018-11-11T14:50:25.145Z,30.20
2018-11-11T14:52:53.616Z,29.37
2018-11-11T14:55:30.882Z,30.87
2018-11-11T14:58:00.367Z,31.20
2018-11-11T15:00:30.909Z,32.67
2018-11-11T15:03:05.259Z,27.90
2018-11-11T15:05:33.826Z,29.67
2018-11-11T15:08:02.281Z,34.57
2018-11-11T15:10:30.781Z,44.83
2018-11-11T15:12:59.418Z,31.43
2018-11-11T15:15:27.945Z,37.47
2018-11-11T15:17:57.273Z,34.27
2018-11-11T15:20:25.786Z,33.63
2018-11-11T15:22:54.078Z,29.73
2018-11-11T15:25:23.895Z,31.50
2018-11-11T15:27:52.243Z,29.70
2018-11-11T15:30:21.994Z,31.83
2018-11-11T15:32:50.835Z,31.23
2018-11-11T15:35:19.389Z,31.67
2018-11-11T15:37:47.790Z,32.50
2018-11-11T15:40:18.606Z,26.90
2018-11-11T15:42:47.046Z,30.80
2018-11-11T15:45:17.839Z,29.40
2018-11-11T15:47:46.234Z,26.53
2018-11-11T15:50:16.046Z,27.27
2018-11-11T15:52:46.061Z,30.07
2018-11-11T15:55:15.039Z,27.80
2018-11-11T15:57:43.434Z,29.13
2018-11-11T16:00:15.165Z,30.03
2018-11-11T16:02:43.982Z,33.27
2018-11-11T16:05:13.154Z,33.63
2018-11-11T16:07:42.383Z,29.37
2018-11-11T16:10:12.678Z,30.57
2018-11-11T16:12:41.094Z,33.77
2018-11-11T16:15:11.796Z,31.73
2018-11-11T16:17:40.510Z,33.30
2018-11-11T16:20:11.994Z,35.90
2018-11-11T16:22:40.541Z,38.20
2018-11-11T16:25:09.506Z,40.17
2018-11-11T16:27:38.631Z,34.63
2018-11-11T16:30:09.275Z,37.07
2018-11-11T16:32:37.674Z,33.20
2018-11-11T16:35:07.774Z,35.57
2018-11-11T16:37:36.709Z,36.87
2018-11-11T16:40:07.295Z,45.10
2018-11-11T16:42:36.030Z,37.30
2018-11-11T16:45:04.507Z,37.40
2018-11-11T16:47:32.903Z,36.27
2018-11-11T16:50:01.503Z,36.53
2018-11-11T16:52:29.920Z,36.87
2018-11-11T16:54:58.290Z,37.67
2018-11-11T16:57:26.682Z,37.50
2018-11-11T16:59:55.073Z,41.47
2018-11-11T17:02:23.446Z,35.97
2018-11-11T17:04:51.843Z,37.97
2018-11-11T17:07:20.209Z,36.53
2018-11-11T17:09:48.610Z,38.10
2018-11-11T17:12:17.004Z,35.37
2018-11-11T17:14:45.394Z,40.23
2018-11-11T17:17:13.765Z,40.40
2018-11-11T17:19:42.155Z,40.57
2018-11-11T17:22:10.847Z,41.00
2018-11-11T17:24:38.943Z,37.70
2018-11-11T17:27:07.360Z,39.03
2018-11-11T17:29:35.799Z,38.60
2018-11-11T17:32:04.169Z,39.43
2018-11-11T17:34:32.563Z,39.13
2018-11-11T17:37:00.932Z,40.13
2018-11-11T17:39:29.327Z,38.00
2018-11-11T17:41:57.717Z,35.43
2018-11-11T17:44:26.110Z,37.50
2018-11-11T17:46:54.474Z,37.17
2018-11-11T17:49:22.871Z,37.47
2018-11-11T17:51:51.243Z,38.07
2018-11-11T17:54:19.657Z,39.17
2018-11-11T17:56:48.036Z,35.70
2018-11-11T17:59:16.431Z,35.13
2018-11-11T18:01:44.825Z,34.80
2018-11-11T18:04:13.585Z,30.57
2018-11-11T18:06:41.985Z,34.67
2018-11-11T18:09:10.905Z,34.70
2018-11-11T18:11:39.900Z,35.47
2018-11-11T18:14:08.609Z,33.70
2018-11-11T18:16:36.978Z,32.50
2018-11-11T18:19:05.659Z,29.83
2018-11-11T18:21:34.026Z,30.37
2018-11-11T18:24:02.474Z,33.30
2018-11-11T18:26:31.067Z,32.17
2018-11-11T18:28:59.454Z,33.70
2018-11-11T18:31:27.830Z,31.80
2018-11-11T18:33:56.234Z,29.73
2018-11-11T18:36:24.610Z,31.40
2018-11-11T18:38:53.006Z,30.97
2018-11-11T18:41:21.403Z,28.53
2018-11-11T18:43:49.798Z,36.43
2018-11-11T18:46:18.177Z,34.53
2018-11-11T18:48:46.558Z,34.20
2018-11-11T18:51:14.953Z,29.00
2018-11-11T18:53:43.361Z,29.93
2018-11-11T18:56:11.800Z,31.50
2018-11-11T18:58:40.167Z,28.70
2018-11-11T19:01:08.572Z,28.37
2018-11-11T19:03:36.952Z,27.53
2018-11-11T19:06:05.454Z,29.07
2018-11-11T19:08:33.837Z,27.40
2018-11-11T19:11:02.349Z,27.40
2018-11-11T19:13:30.696Z,29.00
2018-11-11T19:15:59.075Z,26.30
2018-11-11T19:18:27.446Z,28.90
2018-11-11T19:20:55.887Z,27.60
2018-11-11T19:23:24.237Z,26.77
2018-11-11T19:25:52.639Z,23.83
2018-11-11T19:28:21.042Z,27.67
2018-11-11T19:30:49.451Z,24.90
2018-11-11T19:33:17.826Z,31.27
2018-11-11T19:35:46.226Z,27.73
2018-11-11T19:38:14.602Z,26.50
2018-11-11T19:40:43.007Z,24.97
2018-11-11T19:43:11.407Z,27.50
2018-11-11T19:45:39.813Z,26.50
2018-11-11T19:48:08.262Z,26.10
2018-11-11T19:50:36.634Z,23.90
2018-11-11T19:53:05.230Z,23.63
2018-11-11T19:55:33.630Z,21.63
2018-11-11T19:58:02.008Z,24.60
2018-11-11T20:00:32.347Z,24.03
2018-11-11T20:03:02.188Z,20.70
2018-11-11T20:05:30.715Z,23.10
2018-11-11T20:08:00.063Z,22.70
2018-11-11T20:10:29.104Z,23.13
2018-11-11T20:12:57.837Z,23.17
2018-11-11T20:15:28.612Z,22.53
2018-11-11T20:17:57.027Z,22.23
2018-11-11T20:20:30.738Z,20.93
2018-11-11T20:22:59.120Z,20.70
2018-11-11T20:25:27.514Z,20.53
2018-11-11T20:27:55.915Z,21.87
2018-11-11T20:30:25.638Z,20.77
2018-11-11T20:32:54.205Z,20.10
2018-11-11T20:35:24.775Z,18.50
2018-11-11T20:37:53.715Z,19.90
2018-11-11T20:40:23.237Z,18.73
2018-11-11T20:42:52.626Z,17.97
2018-11-11T20:45:22.373Z,17.70
2018-11-11T20:47:51.514Z,18.13
2018-11-11T20:50:21.182Z,16.80
2018-11-11T20:52:51.358Z,18.20
2018-11-11T20:55:20.187Z,16.63
2018-11-11T20:57:48.587Z,16.57
2018-11-11T21:00:24.833Z,16.30
2018-11-11T21:02:53.287Z,15.50
2018-11-11T21:05:23.146Z,15.93
2018-11-11T21:07:51.596Z,15.50
2018-11-11T21:10:22.183Z,13.60
2018-11-11T21:12:50.576Z,13.73
2018-11-11T21:15:20.197Z,14.40
2018-11-11T21:17:48.914Z,12.80
2018-11-11T21:20:19.527Z,13.33
2018-11-11T21:22:47.925Z,12.13
2018-11-11T21:25:16.350Z,11.87
2018-11-11T21:27:45.712Z,11.43
2018-11-11T21:30:16.538Z,12.47
2018-11-11T21:32:44.937Z,12.23
2018-11-11T21:35:13.594Z,11.30
2018-11-11T21:37:42.429Z,10.63
2018-11-11T21:40:13.002Z,10.40
2018-11-11T21:42:41.894Z,10.30
2018-11-11T21:45:11.959Z,11.17
2018-11-11T21:47:40.634Z,10.13
2018-11-11T21:50:10.958Z,10.80
2018-11-11T21:52:39.346Z,10.00
2018-11-11T21:55:08.103Z,10.10
2018-11-11T21:57:36.926Z,10.03
2018-11-11T22:00:06.526Z,9.87
2018-11-11T22:02:34.913Z,10.73
2018-11-11T22:05:03.282Z,9.83
2018-11-11T22:07:31.675Z,10.57
2018-11-11T22:10:01.539Z,10.07
2018-11-11T22:12:29.922Z,11.40
2018-11-11T22:14:58.297Z,11.77
2018-11-11T22:17:26.690Z,10.60
2018-11-11T22:19:55.069Z,11.83
2018-11-11T22:22:23.486Z,12.77
2018-11-11T22:24:51.867Z,11.90
2018-11-11T22:27:20.298Z,11.70
2018-11-11T22:29:48.667Z,12.30
2018-11-11T22:32:17.062Z,12.30
2018-11-11T22:34:45.438Z,11.90
2018-11-11T22:37:13.830Z,11.40
2018-11-11T22:39:42.209Z,11.17
2018-11-11T22:42:10.643Z,13.77
2018-11-11T22:44:39.030Z,12.57
2018-11-11T22:47:07.438Z,12.20
2018-11-11T22:49:35.812Z,13.47
2018-11-11T22:52:04.473Z,13.53
2018-11-11T22:54:32.858Z,12.90
2018-11-11T22:57:01.254Z,13.37
2018-11-11T22:59:31.323Z,14.20
2018-11-11T23:01:59.718Z,12.67
2018-11-11T23:04:28.090Z,11.53
2018-11-11T23:06:56.494Z,12.60
2018-11-11T23:09:24.874Z,12.20
2018-11-11T23:11:53.275Z,12.03
2018-11-11T23:14:21.646Z,12.97
2018-11-11T23:16:50.050Z,10.60
2018-11-11T23:19:18.446Z,11.83
2018-11-11T23:21:46.814Z,11.70
2018-11-11T23:24:15.234Z,10.70
2018-11-11T23:26:44.086Z,12.60
2018-11-11T23:29:12.499Z,12.30
2018-11-11T23:31:40.882Z,12.50
2018-11-11T23:34:09.318Z,12.40
2018-11-11T23:36:37.699Z,12.40
2018-11-11T23:39:07.955Z,12.37
2018-11-11T23:41:36.353Z,11.80
2018-11-11T23:44:05.360Z,12.07
2018-11-11T23:46:33.758Z,11.57
2018-11-11T23:49:02.352Z,11.77
2018-11-11T23:51:30.728Z,11.93
2018-11-11T23:53:59.118Z,11.10
2018-11-11T23:56:27.488Z,11.67
2018-11-11T23:58:55.888Z,11.93
